sensor_id;sensor_type;location;lat;lon;timestamp;P1;durP1;ratioP1;P2;durP2;ratioP2
13335;SDS011;6737;51.480;11.962;2023-04-25T00:01:31;6.67;;;4.27;;
13335;SDS011;6737;51.480;11.962;2023-04-25T00:04:03;7.27;;;4.47;;
13335;SDS011;6737;51.480;11.962;2023-04-25T00:06:31;6.47;;;4.33;;
13335;SDS011;6737;51.480;11.962;2023-04-25T00:08:57;5.73;;;4.43;;
13335;SDS011;6737;51.480;11.962;2023-04-25T00:11:23;7.83;;;4.20;;
13335;SDS011;6737;51.480;11.962;2023-04-25T00:13:49;5.20;;;3.73;;
13335;SDS011;6737;51.480;11.962;2023-04-25T00:16:19;4.13;;;3.63;;
13335;SDS011;6737;51.480;11.962;2023-04-25T00:18:45;5.60;;;4.23;;
13335;SDS011;6737;51.480;11.962;2023-04-25T00:21:17;4.80;;;3.80;;
13335;SDS011;6737;51.480;11.962;2023-04-25T00:23:44;5.63;;;3.83;;
13335;SDS011;6737;51.480;11.962;2023-04-25T00:26:11;5.47;;;4.00;;
13335;SDS011;6737;51.480;11.962;2023-04-25T00:28:37;6.97;;;4.40;;
13335;SDS011;6737;51.480;11.962;2023-04-25T00:31:03;6.33;;;3.90;;
13335;SDS011;6737;51.480;11.962;2023-04-25T00:33:29;6.80;;;4.27;;
13335;SDS011;6737;51.480;11.962;2023-04-25T00:35:55;6.33;;;3.90;;
13335;SDS011;6737;51.480;11.962;2023-04-25T00:38:21;6.20;;;4.17;;
13335;SDS011;6737;51.480;11.962;2023-04-25T00:40:47;6.87;;;4.40;;
13335;SDS011;6737;51.480;11.962;2023-04-25T00:43:12;5.50;;;4.17;;
13335;SDS011;6737;51.480;11.962;2023-04-25T00:45:39;5.10;;;3.90;;
13335;SDS011;6737;51.480;11.962;2023-04-25T00:48:05;5.73;;;4.40;;
13335;SDS011;6737;51.480;11.962;2023-04-25T00:50:35;8.27;;;5.13;;
13335;SDS011;6737;51.480;11.962;2023-04-25T00:53:02;7.70;;;4.33;;
13335;SDS011;6737;51.480;11.962;2023-04-25T00:55:29;6.20;;;4.73;;
13335;SDS011;6737;51.480;11.962;2023-04-25T00:57:57;5.57;;;3.93;;
13335;SDS011;6737;51.480;11.962;2023-04-25T01:00:23;5.97;;;4.60;;
13335;SDS011;6737;51.480;11.962;2023-04-25T01:02:49;6.13;;;4.20;;
13335;SDS011;6737;51.480;11.962;2023-04-25T01:05:15;7.33;;;4.70;;
13335;SDS011;6737;51.480;11.962;2023-04-25T01:07:41;5.60;;;4.30;;
13335;SDS011;6737;51.480;11.962;2023-04-25T01:10:07;9.43;;;4.67;;
13335;SDS011;6737;51.480;11.962;2023-04-25T01:12:33;5.70;;;4.40;;
13335;SDS011;6737;51.480;11.962;2023-04-25T01:14:59;5.57;;;4.43;;
13335;SDS011;6737;51.480;11.962;2023-04-25T01:17:25;6.43;;;4.60;;
13335;SDS011;6737;51.480;11.962;2023-04-25T01:19:52;5.77;;;4.50;;
13335;SDS011;6737;51.480;11.962;2023-04-25T01:22:18;7.57;;;4.70;;
13335;SDS011;6737;51.480;11.962;2023-04-25T01:24:44;6.40;;;4.70;;
13335;SDS011;6737;51.480;11.962;2023-04-25T01:27:10;7.00;;;4.90;;
13335;SDS011;6737;51.480;11.962;2023-04-25T01:29:37;6.77;;;4.50;;
13335;SDS011;6737;51.480;11.962;2023-04-25T01:32:03;7.03;;;4.50;;
13335;SDS011;6737;51.480;11.962;2023-04-25T01:34:30;6.57;;;4.87;;
13335;SDS011;6737;51.480;11.962;2023-04-25T01:36:56;8.33;;;4.50;;
13335;SDS011;6737;51.480;11.962;2023-04-25T01:39:26;10.23;;;4.90;;
13335;SDS011;6737;51.480;11.962;2023-04-25T01:41:52;7.47;;;5.00;;
13335;SDS011;6737;51.480;11.962;2023-04-25T01:44:18;6.13;;;4.77;;
13335;SDS011;6737;51.480;11.962;2023-04-25T01:46:44;7.60;;;4.83;;
13335;SDS011;6737;51.480;11.962;2023-04-25T01:49:09;8.37;;;4.87;;
13335;SDS011;6737;51.480;11.962;2023-04-25T01:51:35;7.37;;;4.67;;
13335;SDS011;6737;51.480;11.962;2023-04-25T01:54:01;8.93;;;4.70;;
13335;SDS011;6737;51.480;11.962;2023-04-25T01:56:30;6.23;;;4.80;;
13335;SDS011;6737;51.480;11.962;2023-04-25T01:58:57;8.97;;;4.43;;
13335;SDS011;6737;51.480;11.962;2023-04-25T02:01:24;6.87;;;4.60;;
13335;SDS011;6737;51.480;11.962;2023-04-25T02:03:50;6.90;;;4.60;;
13335;SDS011;6737;51.480;11.962;2023-04-25T02:06:16;5.33;;;3.80;;
13335;SDS011;6737;51.480;11.962;2023-04-25T02:08:41;8.43;;;4.20;;
13335;SDS011;6737;51.480;11.962;2023-04-25T02:11:07;4.73;;;3.83;;
13335;SDS011;6737;51.480;11.962;2023-04-25T02:13:33;6.50;;;4.10;;
13335;SDS011;6737;51.480;11.962;2023-04-25T02:15:59;6.27;;;4.40;;
13335;SDS011;6737;51.480;11.962;2023-04-25T02:18:24;4.77;;;3.73;;
13335;SDS011;6737;51.480;11.962;2023-04-25T02:20:51;6.40;;;3.67;;
13335;SDS011;6737;51.480;11.962;2023-04-25T02:23:17;6.67;;;4.00;;
13335;SDS011;6737;51.480;11.962;2023-04-25T02:25:44;6.23;;;3.87;;
13335;SDS011;6737;51.480;11.962;2023-04-25T02:28:10;8.20;;;3.57;;
13335;SDS011;6737;51.480;11.962;2023-04-25T02:30:36;6.80;;;3.77;;
13335;SDS011;6737;51.480;11.962;2023-04-25T02:33:02;8.17;;;3.73;;
13335;SDS011;6737;51.480;11.962;2023-04-25T02:35:28;6.00;;;3.50;;
13335;SDS011;6737;51.480;11.962;2023-04-25T02:37:54;4.70;;;3.83;;
13335;SDS011;6737;51.480;11.962;2023-04-25T02:40:19;6.30;;;3.80;;
13335;SDS011;6737;51.480;11.962;2023-04-25T02:42:45;7.87;;;3.53;;
13335;SDS011;6737;51.480;11.962;2023-04-25T02:45:11;6.80;;;3.90;;
13335;SDS011;6737;51.480;11.962;2023-04-25T02:47:37;6.40;;;3.90;;
13335;SDS011;6737;51.480;11.962;2023-04-25T02:50:03;5.90;;;3.60;;
13335;SDS011;6737;51.480;11.962;2023-04-25T02:52:29;6.83;;;3.80;;
13335;SDS011;6737;51.480;11.962;2023-04-25T02:54:55;6.33;;;3.90;;
13335;SDS011;6737;51.480;11.962;2023-04-25T02:57:21;6.90;;;3.63;;
13335;SDS011;6737;51.480;11.962;2023-04-25T02:59:47;7.50;;;3.60;;
13335;SDS011;6737;51.480;11.962;2023-04-25T03:02:12;6.47;;;3.57;;
13335;SDS011;6737;51.480;11.962;2023-04-25T03:04:39;8.23;;;4.10;;
13335;SDS011;6737;51.480;11.962;2023-04-25T03:07:04;8.50;;;4.10;;
13335;SDS011;6737;51.480;11.962;2023-04-25T03:09:30;6.37;;;3.63;;
13335;SDS011;6737;51.480;11.962;2023-04-25T03:11:56;7.43;;;3.53;;
13335;SDS011;6737;51.480;11.962;2023-04-25T03:14:22;6.13;;;3.50;;
13335;SDS011;6737;51.480;11.962;2023-04-25T03:16:47;5.37;;;3.37;;
13335;SDS011;6737;51.480;11.962;2023-04-25T03:19:13;6.13;;;3.40;;
13335;SDS011;6737;51.480;11.962;2023-04-25T03:21:41;5.93;;;3.57;;
13335;SDS011;6737;51.480;11.962;2023-04-25T03:24:07;7.90;;;3.80;;
13335;SDS011;6737;51.480;11.962;2023-04-25T03:26:32;7.83;;;3.50;;
13335;SDS011;6737;51.480;11.962;2023-04-25T03:28:58;6.30;;;3.07;;
13335;SDS011;6737;51.480;11.962;2023-04-25T03:31:24;5.73;;;3.27;;
13335;SDS011;6737;51.480;11.962;2023-04-25T03:33:50;6.43;;;3.43;;
13335;SDS011;6737;51.480;11.962;2023-04-25T03:36:15;9.17;;;3.70;;
13335;SDS011;6737;51.480;11.962;2023-04-25T03:38:41;7.07;;;3.80;;
13335;SDS011;6737;51.480;11.962;2023-04-25T03:41:07;7.03;;;3.53;;
13335;SDS011;6737;51.480;11.962;2023-04-25T03:43:33;5.30;;;3.40;;
13335;SDS011;6737;51.480;11.962;2023-04-25T03:46:00;7.23;;;3.70;;
13335;SDS011;6737;51.480;11.962;2023-04-25T03:48:26;7.73;;;3.67;;
13335;SDS011;6737;51.480;11.962;2023-04-25T03:50:52;7.60;;;3.90;;
13335;SDS011;6737;51.480;11.962;2023-04-25T03:53:18;8.73;;;3.93;;
13335;SDS011;6737;51.480;11.962;2023-04-25T03:55:44;8.13;;;4.00;;
13335;SDS011;6737;51.480;11.962;2023-04-25T03:58:10;7.47;;;3.70;;
13335;SDS011;6737;51.480;11.962;2023-04-25T04:00:36;6.97;;;4.00;;
13335;SDS011;6737;51.480;11.962;2023-04-25T04:03:02;8.20;;;4.00;;
13335;SDS011;6737;51.480;11.962;2023-04-25T04:05:28;7.10;;;3.70;;
13335;SDS011;6737;51.480;11.962;2023-04-25T04:07:54;7.77;;;3.70;;
13335;SDS011;6737;51.480;11.962;2023-04-25T04:10:20;9.67;;;4.10;;
13335;SDS011;6737;51.480;11.962;2023-04-25T04:12:46;7.23;;;3.70;;
13335;SDS011;6737;51.480;11.962;2023-04-25T04:15:12;7.07;;;3.97;;
13335;SDS011;6737;51.480;11.962;2023-04-25T04:17:38;9.43;;;4.17;;
13335;SDS011;6737;51.480;11.962;2023-04-25T04:20:04;7.13;;;4.13;;
13335;SDS011;6737;51.480;11.962;2023-04-25T04:22:31;9.50;;;3.87;;
13335;SDS011;6737;51.480;11.962;2023-04-25T04:24:57;7.63;;;4.50;;
13335;SDS011;6737;51.480;11.962;2023-04-25T04:27:23;12.17;;;4.67;;
13335;SDS011;6737;51.480;11.962;2023-04-25T04:29:49;8.17;;;4.47;;
13335;SDS011;6737;51.480;11.962;2023-04-25T04:32:17;9.43;;;4.80;;
13335;SDS011;6737;51.480;11.962;2023-04-25T04:34:43;10.73;;;4.80;;
13335;SDS011;6737;51.480;11.962;2023-04-25T04:37:09;9.10;;;5.03;;
13335;SDS011;6737;51.480;11.962;2023-04-25T04:39:35;11.10;;;4.83;;
13335;SDS011;6737;51.480;11.962;2023-04-25T04:42:02;9.20;;;5.43;;
13335;SDS011;6737;51.480;11.962;2023-04-25T04:44:28;11.80;;;5.60;;
13335;SDS011;6737;51.480;11.962;2023-04-25T04:46:57;9.93;;;5.13;;
13335;SDS011;6737;51.480;11.962;2023-04-25T04:49:24;12.70;;;5.80;;
13335;SDS011;6737;51.480;11.962;2023-04-25T04:51:49;8.93;;;4.80;;
13335;SDS011;6737;51.480;11.962;2023-04-25T04:54:15;13.60;;;5.57;;
13335;SDS011;6737;51.480;11.962;2023-04-25T04:56:41;12.27;;;5.60;;
13335;SDS011;6737;51.480;11.962;2023-04-25T04:59:07;8.10;;;5.03;;
13335;SDS011;6737;51.480;11.962;2023-04-25T05:01:33;9.93;;;5.37;;
13335;SDS011;6737;51.480;11.962;2023-04-25T05:04:01;9.20;;;5.10;;
13335;SDS011;6737;51.480;11.962;2023-04-25T05:06:28;9.83;;;5.67;;
13335;SDS011;6737;51.480;11.962;2023-04-25T05:08:56;11.93;;;6.07;;
13335;SDS011;6737;51.480;11.962;2023-04-25T05:11:23;9.23;;;5.73;;
13335;SDS011;6737;51.480;11.962;2023-04-25T05:13:51;12.23;;;6.17;;
13335;SDS011;6737;51.480;11.962;2023-04-25T05:16:18;11.37;;;6.27;;
13335;SDS011;6737;51.480;11.962;2023-04-25T05:18:45;13.43;;;7.23;;
13335;SDS011;6737;51.480;11.962;2023-04-25T05:21:12;13.77;;;6.80;;
13335;SDS011;6737;51.480;11.962;2023-04-25T05:23:38;12.67;;;6.83;;
13335;SDS011;6737;51.480;11.962;2023-04-25T05:26:04;13.23;;;6.50;;
13335;SDS011;6737;51.480;11.962;2023-04-25T05:28:30;11.87;;;6.90;;
13335;SDS011;6737;51.480;11.962;2023-04-25T05:30:56;11.77;;;6.77;;
13335;SDS011;6737;51.480;11.962;2023-04-25T05:33:22;12.23;;;7.30;;
13335;SDS011;6737;51.480;11.962;2023-04-25T05:35:48;12.43;;;6.67;;
13335;SDS011;6737;51.480;11.962;2023-04-25T05:38:14;9.07;;;6.47;;
13335;SDS011;6737;51.480;11.962;2023-04-25T05:40:39;11.80;;;7.23;;
13335;SDS011;6737;51.480;11.962;2023-04-25T05:43:05;12.10;;;6.63;;
13335;SDS011;6737;51.480;11.962;2023-04-25T05:45:32;9.70;;;6.80;;
13335;SDS011;6737;51.480;11.962;2023-04-25T05:47:58;11.33;;;6.70;;
13335;SDS011;6737;51.480;11.962;2023-04-25T05:50:24;11.77;;;7.03;;
13335;SDS011;6737;51.480;11.962;2023-04-25T05:52:50;13.23;;;7.07;;
13335;SDS011;6737;51.480;11.962;2023-04-25T05:55:16;10.47;;;6.67;;
13335;SDS011;6737;51.480;11.962;2023-04-25T05:57:41;10.50;;;6.40;;
13335;SDS011;6737;51.480;11.962;2023-04-25T06:00:11;9.57;;;6.10;;
13335;SDS011;6737;51.480;11.962;2023-04-25T06:02:40;14.27;;;6.37;;
13335;SDS011;6737;51.480;11.962;2023-04-25T06:05:06;12.57;;;6.73;;
13335;SDS011;6737;51.480;11.962;2023-04-25T06:07:32;10.93;;;5.90;;
13335;SDS011;6737;51.480;11.962;2023-04-25T06:09:58;11.93;;;7.13;;
13335;SDS011;6737;51.480;11.962;2023-04-25T06:12:25;10.43;;;6.63;;
13335;SDS011;6737;51.480;11.962;2023-04-25T06:14:50;9.83;;;6.30;;
13335;SDS011;6737;51.480;11.962;2023-04-25T06:17:16;8.60;;;6.80;;
13335;SDS011;6737;51.480;11.962;2023-04-25T06:19:42;11.00;;;6.60;;
13335;SDS011;6737;51.480;11.962;2023-04-25T06:22:08;10.87;;;6.20;;
13335;SDS011;6737;51.480;11.962;2023-04-25T06:24:33;13.10;;;6.70;;
13335;SDS011;6737;51.480;11.962;2023-04-25T06:27:00;11.73;;;6.80;;
13335;SDS011;6737;51.480;11.962;2023-04-25T06:29:26;10.23;;;6.30;;
13335;SDS011;6737;51.480;11.962;2023-04-25T06:31:52;11.37;;;6.50;;
13335;SDS011;6737;51.480;11.962;2023-04-25T06:34:18;12.20;;;6.30;;
13335;SDS011;6737;51.480;11.962;2023-04-25T06:36:43;12.77;;;7.23;;
13335;SDS011;6737;51.480;11.962;2023-04-25T06:39:09;11.70;;;7.10;;
13335;SDS011;6737;51.480;11.962;2023-04-25T06:41:35;12.60;;;6.67;;
13335;SDS011;6737;51.480;11.962;2023-04-25T06:44:01;14.60;;;6.80;;
13335;SDS011;6737;51.480;11.962;2023-04-25T06:46:27;14.43;;;6.77;;
13335;SDS011;6737;51.480;11.962;2023-04-25T06:48:53;9.80;;;6.43;;
13335;SDS011;6737;51.480;11.962;2023-04-25T06:51:19;12.23;;;6.50;;
13335;SDS011;6737;51.480;11.962;2023-04-25T06:53:45;11.03;;;6.30;;
13335;SDS011;6737;51.480;11.962;2023-04-25T06:56:10;12.30;;;7.00;;
13335;SDS011;6737;51.480;11.962;2023-04-25T06:58:36;13.23;;;6.70;;
13335;SDS011;6737;51.480;11.962;2023-04-25T07:01:02;7.90;;;5.30;;
13335;SDS011;6737;51.480;11.962;2023-04-25T07:03:28;7.77;;;2.70;;
13335;SDS011;6737;51.480;11.962;2023-04-25T07:05:54;7.77;;;2.60;;
13335;SDS011;6737;51.480;11.962;2023-04-25T07:08:20;7.40;;;2.33;;
13335;SDS011;6737;51.480;11.962;2023-04-25T07:10:46;6.97;;;2.50;;
13335;SDS011;6737;51.480;11.962;2023-04-25T07:13:12;7.27;;;2.60;;
13335;SDS011;6737;51.480;11.962;2023-04-25T07:15:38;6.97;;;2.47;;
13335;SDS011;6737;51.480;11.962;2023-04-25T07:18:04;7.90;;;2.00;;
13335;SDS011;6737;51.480;11.962;2023-04-25T07:20:30;6.50;;;2.37;;
13335;SDS011;6737;51.480;11.962;2023-04-25T07:22:56;6.30;;;2.07;;
13335;SDS011;6737;51.480;11.962;2023-04-25T07:25:22;9.17;;;2.40;;
13335;SDS011;6737;51.480;11.962;2023-04-25T07:27:48;9.30;;;2.37;;
13335;SDS011;6737;51.480;11.962;2023-04-25T07:30:14;10.17;;;2.23;;
13335;SDS011;6737;51.480;11.962;2023-04-25T07:32:40;9.67;;;2.40;;
13335;SDS011;6737;51.480;11.962;2023-04-25T07:35:06;7.20;;;2.00;;
13335;SDS011;6737;51.480;11.962;2023-04-25T07:37:33;10.57;;;2.13;;
13335;SDS011;6737;51.480;11.962;2023-04-25T07:39:59;7.00;;;2.33;;
13335;SDS011;6737;51.480;11.962;2023-04-25T07:42:25;7.87;;;2.40;;
13335;SDS011;6737;51.480;11.962;2023-04-25T07:44:51;8.57;;;2.43;;
13335;SDS011;6737;51.480;11.962;2023-04-25T07:47:17;11.40;;;2.63;;
13335;SDS011;6737;51.480;11.962;2023-04-25T07:49:44;10.37;;;2.63;;
13335;SDS011;6737;51.480;11.962;2023-04-25T07:52:11;10.77;;;2.70;;
13335;SDS011;6737;51.480;11.962;2023-04-25T07:54:37;7.70;;;2.40;;
13335;SDS011;6737;51.480;11.962;2023-04-25T07:57:03;10.57;;;2.43;;
13335;SDS011;6737;51.480;11.962;2023-04-25T07:59:31;14.57;;;2.97;;
13335;SDS011;6737;51.480;11.962;2023-04-25T08:01:57;14.23;;;3.03;;
13335;SDS011;6737;51.480;11.962;2023-04-25T08:04:23;7.93;;;2.20;;
13335;SDS011;6737;51.480;11.962;2023-04-25T08:06:51;7.83;;;2.50;;
13335;SDS011;6737;51.480;11.962;2023-04-25T08:09:20;7.73;;;2.30;;
13335;SDS011;6737;51.480;11.962;2023-04-25T08:11:46;9.87;;;2.60;;
13335;SDS011;6737;51.480;11.962;2023-04-25T08:14:12;9.03;;;2.40;;
13335;SDS011;6737;51.480;11.962;2023-04-25T08:16:38;16.40;;;2.50;;
13335;SDS011;6737;51.480;11.962;2023-04-25T08:19:05;11.07;;;2.70;;
13335;SDS011;6737;51.480;11.962;2023-04-25T08:21:31;10.80;;;2.70;;
13335;SDS011;6737;51.480;11.962;2023-04-25T08:23:58;8.90;;;2.47;;
13335;SDS011;6737;51.480;11.962;2023-04-25T08:26:24;14.43;;;3.13;;
13335;SDS011;6737;51.480;11.962;2023-04-25T08:28:50;8.23;;;2.27;;
13335;SDS011;6737;51.480;11.962;2023-04-25T08:31:16;13.83;;;2.77;;
13335;SDS011;6737;51.480;11.962;2023-04-25T08:33:42;13.13;;;3.20;;
13335;SDS011;6737;51.480;11.962;2023-04-25T08:36:09;12.83;;;2.90;;
13335;SDS011;6737;51.480;11.962;2023-04-25T08:38:35;12.33;;;3.03;;
13335;SDS011;6737;51.480;11.962;2023-04-25T08:41:01;10.40;;;3.27;;
13335;SDS011;6737;51.480;11.962;2023-04-25T08:43:28;14.27;;;3.17;;
13335;SDS011;6737;51.480;11.962;2023-04-25T08:45:59;14.63;;;3.30;;
13335;SDS011;6737;51.480;11.962;2023-04-25T08:48:29;13.13;;;3.20;;
13335;SDS011;6737;51.480;11.962;2023-04-25T08:50:59;13.60;;;3.80;;
13335;SDS011;6737;51.480;11.962;2023-04-25T08:53:29;14.57;;;3.60;;
13335;SDS011;6737;51.480;11.962;2023-04-25T08:55:57;12.83;;;3.40;;
13335;SDS011;6737;51.480;11.962;2023-04-25T08:58:24;21.93;;;4.10;;
13335;SDS011;6737;51.480;11.962;2023-04-25T09:00:50;12.93;;;3.90;;
13335;SDS011;6737;51.480;11.962;2023-04-25T09:03:17;12.53;;;3.50;;
13335;SDS011;6737;51.480;11.962;2023-04-25T09:05:43;12.70;;;3.87;;
13335;SDS011;6737;51.480;11.962;2023-04-25T09:08:09;14.07;;;3.63;;
13335;SDS011;6737;51.480;11.962;2023-04-25T09:10:36;9.77;;;3.30;;
13335;SDS011;6737;51.480;11.962;2023-04-25T09:13:02;11.50;;;3.50;;
13335;SDS011;6737;51.480;11.962;2023-04-25T09:15:49;11.43;;;3.60;;
13335;SDS011;6737;51.480;11.962;2023-04-25T09:18:30;11.93;;;3.90;;
13335;SDS011;6737;51.480;11.962;2023-04-25T09:21:05;11.80;;;4.00;;
13335;SDS011;6737;51.480;11.962;2023-04-25T09:23:47;14.17;;;4.30;;
13335;SDS011;6737;51.480;11.962;2023-04-25T09:26:13;12.07;;;4.33;;
13335;SDS011;6737;51.480;11.962;2023-04-25T09:28:42;13.33;;;4.37;;
13335;SDS011;6737;51.480;11.962;2023-04-25T09:31:09;12.00;;;4.00;;
13335;SDS011;6737;51.480;11.962;2023-04-25T09:33:36;11.07;;;4.47;;
13335;SDS011;6737;51.480;11.962;2023-04-25T09:38:30;15.50;;;4.30;;
13335;SDS011;6737;51.480;11.962;2023-04-25T09:40:57;12.10;;;4.40;;
13335;SDS011;6737;51.480;11.962;2023-04-25T09:43:25;9.97;;;4.40;;
13335;SDS011;6737;51.480;11.962;2023-04-25T09:45:53;11.07;;;4.80;;
13335;SDS011;6737;51.480;11.962;2023-04-25T09:48:22;14.43;;;4.37;;
13335;SDS011;6737;51.480;11.962;2023-04-25T09:51:05;14.33;;;4.43;;
13335;SDS011;6737;51.480;11.962;2023-04-25T09:53:38;9.50;;;3.83;;
13335;SDS011;6737;51.480;11.962;2023-04-25T09:56:14;12.17;;;3.60;;
13335;SDS011;6737;51.480;11.962;2023-04-25T09:58:41;7.47;;;3.43;;
13335;SDS011;6737;51.480;11.962;2023-04-25T10:01:08;9.77;;;3.23;;
13335;SDS011;6737;51.480;11.962;2023-04-25T10:03:38;10.40;;;3.47;;
13335;SDS011;6737;51.480;11.962;2023-04-25T10:06:07;11.67;;;3.97;;
13335;SDS011;6737;51.480;11.962;2023-04-25T10:08:36;11.87;;;3.37;;
13335;SDS011;6737;51.480;11.962;2023-04-25T10:11:04;13.63;;;3.40;;
13335;SDS011;6737;51.480;11.962;2023-04-25T10:13:33;10.57;;;3.53;;
13335;SDS011;6737;51.480;11.962;2023-04-25T10:16:04;9.93;;;3.43;;
13335;SDS011;6737;51.480;11.962;2023-04-25T10:18:30;13.70;;;3.37;;
13335;SDS011;6737;51.480;11.962;2023-04-25T10:20:59;12.40;;;3.30;;
13335;SDS011;6737;51.480;11.962;2023-04-25T10:23:29;12.93;;;3.10;;
13335;SDS011;6737;51.480;11.962;2023-04-25T10:25:56;13.53;;;3.43;;
13335;SDS011;6737;51.480;11.962;2023-04-25T10:28:23;8.43;;;3.80;;
13335;SDS011;6737;51.480;11.962;2023-04-25T10:31:03;12.27;;;3.90;;
13335;SDS011;6737;51.480;11.962;2023-04-25T10:33:33;16.63;;;4.03;;
13335;SDS011;6737;51.480;11.962;2023-04-25T10:36:10;13.10;;;3.97;;
13335;SDS011;6737;51.480;11.962;2023-04-25T10:38:39;15.57;;;4.20;;
13335;SDS011;6737;51.480;11.962;2023-04-25T10:41:07;10.93;;;3.50;;
13335;SDS011;6737;51.480;11.962;2023-04-25T10:48:58;9.27;;;3.20;;
13335;SDS011;6737;51.480;11.962;2023-04-25T10:51:26;11.03;;;2.80;;
13335;SDS011;6737;51.480;11.962;2023-04-25T10:56:26;8.80;;;2.23;;
13335;SDS011;6737;51.480;11.962;2023-04-25T11:01:46;6.80;;;2.30;;
13335;SDS011;6737;51.480;11.962;2023-04-25T11:07:20;12.53;;;2.13;;
13335;SDS011;6737;51.480;11.962;2023-04-25T11:09:58;10.30;;;2.43;;
13335;SDS011;6737;51.480;11.962;2023-04-25T11:12:29;7.23;;;2.10;;
13335;SDS011;6737;51.480;11.962;2023-04-25T11:15:03;9.40;;;2.37;;
13335;SDS011;6737;51.480;11.962;2023-04-25T11:17:31;9.20;;;2.13;;
13335;SDS011;6737;51.480;11.962;2023-04-25T11:19:56;6.80;;;2.50;;
13335;SDS011;6737;51.480;11.962;2023-04-25T11:22:23;7.57;;;2.10;;
13335;SDS011;6737;51.480;11.962;2023-04-25T11:24:49;8.67;;;2.03;;
13335;SDS011;6737;51.480;11.962;2023-04-25T11:27:16;9.17;;;1.90;;
13335;SDS011;6737;51.480;11.962;2023-04-25T11:29:42;9.57;;;2.33;;
13335;SDS011;6737;51.480;11.962;2023-04-25T11:32:08;9.83;;;2.57;;
13335;SDS011;6737;51.480;11.962;2023-04-25T11:34:34;8.30;;;2.50;;
13335;SDS011;6737;51.480;11.962;2023-04-25T11:37:00;8.17;;;2.10;;
13335;SDS011;6737;51.480;11.962;2023-04-25T11:39:27;12.27;;;2.50;;
13335;SDS011;6737;51.480;11.962;2023-04-25T11:41:53;7.63;;;2.10;;
13335;SDS011;6737;51.480;11.962;2023-04-25T11:44:20;8.20;;;2.10;;
13335;SDS011;6737;51.480;11.962;2023-04-25T11:46:46;5.57;;;2.40;;
13335;SDS011;6737;51.480;11.962;2023-04-25T11:49:13;12.03;;;2.33;;
13335;SDS011;6737;51.480;11.962;2023-04-25T11:51:43;6.03;;;1.90;;
13335;SDS011;6737;51.480;11.962;2023-04-25T11:54:11;10.33;;;2.30;;
13335;SDS011;6737;51.480;11.962;2023-04-25T11:56:37;8.97;;;2.10;;
13335;SDS011;6737;51.480;11.962;2023-04-25T11:59:09;7.60;;;1.90;;
13335;SDS011;6737;51.480;11.962;2023-04-25T12:01:38;6.90;;;1.90;;
13335;SDS011;6737;51.480;11.962;2023-04-25T12:04:10;7.53;;;2.23;;
13335;SDS011;6737;51.480;11.962;2023-04-25T12:06:37;6.00;;;1.80;;
13335;SDS011;6737;51.480;11.962;2023-04-25T12:09:10;7.27;;;1.83;;
13335;SDS011;6737;51.480;11.962;2023-04-25T12:11:56;7.63;;;1.87;;
13335;SDS011;6737;51.480;11.962;2023-04-25T12:14:27;8.03;;;1.90;;
13335;SDS011;6737;51.480;11.962;2023-04-25T12:17:00;7.23;;;1.90;;
13335;SDS011;6737;51.480;11.962;2023-04-25T12:19:34;4.60;;;1.67;;
13335;SDS011;6737;51.480;11.962;2023-04-25T12:22:02;6.20;;;1.67;;
13335;SDS011;6737;51.480;11.962;2023-04-25T12:24:28;6.97;;;1.50;;
13335;SDS011;6737;51.480;11.962;2023-04-25T12:27:01;3.43;;;1.60;;
13335;SDS011;6737;51.480;11.962;2023-04-25T12:29:29;6.10;;;1.80;;
13335;SDS011;6737;51.480;11.962;2023-04-25T12:31:57;4.00;;;1.47;;
13335;SDS011;6737;51.480;11.962;2023-04-25T12:34:24;4.53;;;1.57;;
13335;SDS011;6737;51.480;11.962;2023-04-25T12:36:51;4.37;;;1.40;;
13335;SDS011;6737;51.480;11.962;2023-04-25T12:39:21;4.90;;;1.47;;
13335;SDS011;6737;51.480;11.962;2023-04-25T12:41:48;7.50;;;1.70;;
13335;SDS011;6737;51.480;11.962;2023-04-25T12:44:15;6.50;;;1.77;;
13335;SDS011;6737;51.480;11.962;2023-04-25T12:46:41;4.63;;;1.50;;
13335;SDS011;6737;51.480;11.962;2023-04-25T12:49:07;6.13;;;1.70;;
13335;SDS011;6737;51.480;11.962;2023-04-25T12:51:34;9.27;;;1.70;;
13335;SDS011;6737;51.480;11.962;2023-04-25T12:54:02;7.77;;;1.70;;
13335;SDS011;6737;51.480;11.962;2023-04-25T12:56:29;4.27;;;1.33;;
13335;SDS011;6737;51.480;11.962;2023-04-25T12:58:56;5.67;;;1.70;;
13335;SDS011;6737;51.480;11.962;2023-04-25T13:01:22;7.07;;;1.50;;
13335;SDS011;6737;51.480;11.962;2023-04-25T13:03:49;6.97;;;1.70;;
13335;SDS011;6737;51.480;11.962;2023-04-25T13:06:15;5.27;;;1.70;;
13335;SDS011;6737;51.480;11.962;2023-04-25T13:08:42;4.33;;;1.50;;
13335;SDS011;6737;51.480;11.962;2023-04-25T13:11:08;6.43;;;1.70;;
13335;SDS011;6737;51.480;11.962;2023-04-25T13:13:35;6.73;;;1.50;;
13335;SDS011;6737;51.480;11.962;2023-04-25T13:16:01;6.50;;;1.90;;
13335;SDS011;6737;51.480;11.962;2023-04-25T13:18:27;6.63;;;1.83;;
13335;SDS011;6737;51.480;11.962;2023-04-25T13:20:54;6.67;;;1.70;;
13335;SDS011;6737;51.480;11.962;2023-04-25T13:23:21;6.40;;;1.60;;
13335;SDS011;6737;51.480;11.962;2023-04-25T13:25:47;3.60;;;1.70;;
13335;SDS011;6737;51.480;11.962;2023-04-25T13:28:13;7.53;;;1.70;;
13335;SDS011;6737;51.480;11.962;2023-04-25T13:30:39;5.90;;;1.60;;
13335;SDS011;6737;51.480;11.962;2023-04-25T13:33:05;6.67;;;1.60;;
13335;SDS011;6737;51.480;11.962;2023-04-25T13:35:32;3.33;;;1.70;;
13335;SDS011;6737;51.480;11.962;2023-04-25T13:37:59;5.63;;;1.60;;
13335;SDS011;6737;51.480;11.962;2023-04-25T13:40:25;4.63;;;1.80;;
13335;SDS011;6737;51.480;11.962;2023-04-25T13:42:52;7.03;;;1.80;;
13335;SDS011;6737;51.480;11.962;2023-04-25T13:45:19;7.30;;;1.90;;
13335;SDS011;6737;51.480;11.962;2023-04-25T13:47:45;5.43;;;1.60;;
13335;SDS011;6737;51.480;11.962;2023-04-25T13:50:11;4.17;;;1.47;;
13335;SDS011;6737;51.480;11.962;2023-04-25T13:52:39;3.77;;;1.73;;
13335;SDS011;6737;51.480;11.962;2023-04-25T13:55:05;5.47;;;1.60;;
13335;SDS011;6737;51.480;11.962;2023-04-25T13:57:32;4.77;;;1.87;;
13335;SDS011;6737;51.480;11.962;2023-04-25T13:59:59;6.90;;;1.60;;
13335;SDS011;6737;51.480;11.962;2023-04-25T14:02:30;4.10;;;1.67;;
13335;SDS011;6737;51.480;11.962;2023-04-25T14:04:55;4.57;;;1.53;;
13335;SDS011;6737;51.480;11.962;2023-04-25T14:07:21;5.23;;;1.40;;
13335;SDS011;6737;51.480;11.962;2023-04-25T14:09:47;4.80;;;1.60;;
13335;SDS011;6737;51.480;11.962;2023-04-25T14:12:13;3.37;;;1.40;;
13335;SDS011;6737;51.480;11.962;2023-04-25T14:14:39;6.83;;;1.60;;
13335;SDS011;6737;51.480;11.962;2023-04-25T14:17:05;3.37;;;1.60;;
13335;SDS011;6737;51.480;11.962;2023-04-25T14:19:31;5.10;;;1.50;;
13335;SDS011;6737;51.480;11.962;2023-04-25T14:21:57;4.73;;;1.70;;
13335;SDS011;6737;51.480;11.962;2023-04-25T14:24:23;5.90;;;1.63;;
13335;SDS011;6737;51.480;11.962;2023-04-25T14:26:49;8.33;;;1.80;;
13335;SDS011;6737;51.480;11.962;2023-04-25T14:29:15;3.97;;;1.70;;
13335;SDS011;6737;51.480;11.962;2023-04-25T14:31:40;4.30;;;1.50;;
13335;SDS011;6737;51.480;11.962;2023-04-25T14:34:06;8.53;;;1.70;;
13335;SDS011;6737;51.480;11.962;2023-04-25T14:36:32;7.10;;;1.80;;
13335;SDS011;6737;51.480;11.962;2023-04-25T14:38:59;4.93;;;1.80;;
13335;SDS011;6737;51.480;11.962;2023-04-25T14:41:25;3.40;;;1.90;;
13335;SDS011;6737;51.480;11.962;2023-04-25T14:43:51;6.43;;;1.73;;
13335;SDS011;6737;51.480;11.962;2023-04-25T14:46:22;3.83;;;1.83;;
13335;SDS011;6737;51.480;11.962;2023-04-25T14:48:50;8.07;;;1.70;;
13335;SDS011;6737;51.480;11.962;2023-04-25T14:51:16;4.83;;;1.57;;
13335;SDS011;6737;51.480;11.962;2023-04-25T14:53:42;4.00;;;1.60;;
13335;SDS011;6737;51.480;11.962;2023-04-25T14:56:08;3.80;;;1.40;;
13335;SDS011;6737;51.480;11.962;2023-04-25T14:58:34;5.13;;;1.40;;